createdAt,value
2022-11-30T00:01:39.648Z,43.26
2022-11-30T00:06:43.040Z,43.51
2022-11-30T00:11:46.437Z,43.65
2022-11-30T00:16:49.877Z,43.49
2022-11-30T00:21:54.465Z,43.46
2022-11-30T00:26:57.883Z,43.23
2022-11-30T00:32:01.315Z,43.17
2022-11-30T00:37:04.694Z,43.26
2022-11-30T00:42:08.071Z,43.34
2022-11-30T00:47:11.465Z,43.58
2022-11-30T00:52:14.856Z,43.60
2022-11-30T00:57:18.221Z,43.54
2022-11-30T01:02:21.753Z,43.58
2022-11-30T01:07:25.259Z,43.54
2022-11-30T01:12:28.839Z,43.55
2022-11-30T01:17:32.198Z,43.45
2022-11-30T01:22:35.589Z,43.54
2022-11-30T01:27:38.948Z,43.46
2022-11-30T01:32:42.348Z,43.66
2022-11-30T01:37:46.018Z,43.70
2022-11-30T01:42:49.520Z,43.51
2022-11-30T01:47:52.915Z,43.68
2022-11-30T01:52:56.347Z,43.74
2022-11-30T01:57:59.738Z,43.76
2022-11-30T02:03:03.137Z,43.68
2022-11-30T02:08:06.644Z,43.64
2022-11-30T02:13:10.150Z,43.81
2022-11-30T02:18:13.519Z,43.83
2022-11-30T02:23:16.919Z,43.83
2022-11-30T02:28:20.543Z,43.80
2022-11-30T02:33:24.077Z,43.84
2022-11-30T02:38:27.441Z,43.83
2022-11-30T02:43:31.001Z,43.79
2022-11-30T02:48:34.427Z,43.88
2022-11-30T02:53:37.876Z,43.74
2022-11-30T02:58:41.290Z,44.27
2022-11-30T03:03:44.994Z,44.13
2022-11-30T03:08:48.439Z,43.93
2022-11-30T03:13:51.857Z,43.93
2022-11-30T03:18:55.255Z,43.85
2022-11-30T03:23:58.666Z,43.86
2022-11-30T03:29:02.061Z,43.85
2022-11-30T03:34:05.460Z,43.77
2022-11-30T03:39:09.482Z,43.91
2022-11-30T03:44:12.894Z,44.03
2022-11-30T03:49:16.352Z,43.99
2022-11-30T03:54:19.721Z,44.09
2022-11-30T03:59:23.136Z,43.98
2022-11-30T04:04:26.514Z,44.14
2022-11-30T04:09:29.896Z,44.09
2022-11-30T04:14:33.285Z,44.19
2022-11-30T04:19:36.695Z,44.13
2022-11-30T04:24:40.085Z,44.15
2022-11-30T04:29:43.497Z,44.17
2022-11-30T04:34:47.292Z,44.29
2022-11-30T04:39:50.988Z,44.29
2022-11-30T04:44:54.363Z,44.42
2022-11-30T04:49:57.781Z,44.31
2022-11-30T04:55:01.231Z,44.44
2022-11-30T05:00:04.841Z,44.39
2022-11-30T05:05:08.277Z,44.56
2022-11-30T05:10:11.655Z,44.45
2022-11-30T05:15:15.010Z,44.65
2022-11-30T05:20:18.412Z,44.70
2022-11-30T05:25:21.865Z,44.73
2022-11-30T05:30:25.253Z,44.67
2022-11-30T05:35:28.653Z,44.72
2022-11-30T05:40:32.787Z,44.78
2022-11-30T05:45:36.199Z,44.75
2022-11-30T05:50:39.796Z,44.75
2022-11-30T05:55:43.219Z,45.00
2022-11-30T06:00:46.673Z,44.95
2022-11-30T06:05:50.124Z,44.92
2022-11-30T06:10:53.571Z,44.80
2022-11-30T06:15:57.041Z,44.70
2022-11-30T06:21:00.409Z,44.37
2022-11-30T06:26:03.811Z,44.34
2022-11-30T06:31:07.303Z,44.05
2022-11-30T06:36:10.738Z,43.96
2022-11-30T06:41:14.124Z,44.20
2022-11-30T06:46:17.613Z,43.90
2022-11-30T06:51:21.203Z,43.80
2022-11-30T06:56:24.904Z,43.97
2022-11-30T07:01:28.328Z,43.77
2022-11-30T07:06:32.086Z,44.00
2022-11-30T07:11:35.475Z,44.63
2022-11-30T07:16:38.940Z,45.35
2022-11-30T07:21:42.334Z,45.64
2022-11-30T07:26:45.777Z,45.81
2022-11-30T07:31:49.259Z,45.69
2022-11-30T07:36:52.718Z,45.60
2022-11-30T07:41:56.134Z,45.48
2022-11-30T07:47:00.982Z,45.25
2022-11-30T07:52:05.540Z,45.22
2022-11-30T07:57:09.042Z,45.12
2022-11-30T08:02:13.289Z,45.23
2022-11-30T08:07:16.798Z,44.80
2022-11-30T08:12:20.231Z,45.02
2022-11-30T08:17:23.643Z,45.21
2022-11-30T08:22:27.037Z,45.22
2022-11-30T08:27:30.433Z,45.24
2022-11-30T08:32:33.856Z,45.02
2022-11-30T08:37:37.312Z,44.38
2022-11-30T08:42:40.729Z,44.45
2022-11-30T08:47:44.109Z,44.46
2022-11-30T08:52:47.492Z,44.48
2022-11-30T08:57:50.875Z,44.62
2022-11-30T09:02:54.313Z,44.66
2022-11-30T09:07:57.840Z,43.04
2022-11-30T09:13:01.270Z,41.73
2022-11-30T09:18:04.671Z,42.03
2022-11-30T09:23:08.212Z,41.64
2022-11-30T09:28:12.524Z,41.46
2022-11-30T09:33:16.079Z,41.27
2022-11-30T09:38:19.531Z,40.98
2022-11-30T09:43:22.919Z,41.24
2022-11-30T09:48:26.314Z,41.32
2022-11-30T09:53:30.115Z,41.29
2022-11-30T09:58:33.723Z,41.24
2022-11-30T10:03:37.168Z,41.33
2022-11-30T10:08:42.914Z,43.90
2022-11-30T10:13:49.567Z,45.61
2022-11-30T10:18:52.985Z,44.11
2022-11-30T10:23:57.237Z,43.07
2022-11-30T10:29:00.667Z,42.21
2022-11-30T10:34:06.178Z,42.29
2022-11-30T10:39:14.152Z,42.59
2022-11-30T10:44:17.884Z,42.64
2022-11-30T10:49:23.472Z,42.74
2022-11-30T10:54:26.869Z,42.98
2022-11-30T10:59:30.354Z,43.15
2022-11-30T11:04:33.835Z,43.36
2022-11-30T11:09:37.353Z,43.50
2022-11-30T11:14:40.777Z,43.49
2022-11-30T11:19:44.197Z,43.77
2022-11-30T11:24:47.806Z,43.63
2022-11-30T11:29:51.179Z,43.69
2022-11-30T11:34:54.550Z,43.96
2022-11-30T11:39:57.911Z,44.10
2022-11-30T11:45:01.316Z,44.37
2022-11-30T11:50:04.828Z,44.37
2022-11-30T11:55:08.390Z,44.45
2022-11-30T12:00:16.101Z,44.18
2022-11-30T12:05:20.101Z,44.61
2022-11-30T12:10:50.491Z,44.72
2022-11-30T12:15:46.975Z,44.67
2022-11-30T12:20:50.370Z,44.55
2022-11-30T12:25:53.836Z,44.21
2022-11-30T12:30:57.354Z,43.40
2022-11-30T12:36:00.831Z,44.00
2022-11-30T12:41:04.253Z,43.44
2022-11-30T12:46:07.999Z,44.33
2022-11-30T12:51:11.546Z,44.75
2022-11-30T12:56:14.932Z,45.44
2022-11-30T13:01:18.352Z,45.76
2022-11-30T13:06:24.032Z,44.88
2022-11-30T13:11:27.517Z,45.77
2022-11-30T13:16:31.085Z,46.60
2022-11-30T13:21:34.771Z,46.00
2022-11-30T13:26:38.460Z,45.20
2022-11-30T13:31:41.940Z,44.42
2022-11-30T13:36:45.677Z,44.02
2022-11-30T13:41:49.055Z,43.48
2022-11-30T13:46:53.400Z,43.38
2022-11-30T13:52:21.522Z,43.32
2022-11-30T13:57:20.460Z,43.17
2022-11-30T14:02:23.970Z,43.15
2022-11-30T14:07:43.258Z,42.97
2022-11-30T14:18:15.418Z,43.34
2022-11-30T14:23:18.873Z,43.72
2022-11-30T14:28:22.314Z,42.85
2022-11-30T14:33:25.712Z,43.23
2022-11-30T14:38:30.801Z,43.53
2022-11-30T14:43:36.759Z,44.04
2022-11-30T14:48:40.300Z,43.95
2022-11-30T14:53:43.690Z,44.26
2022-11-30T14:58:47.541Z,44.05
2022-11-30T15:03:50.967Z,45.05
2022-11-30T15:08:54.564Z,44.46
2022-11-30T15:13:58.109Z,44.94
2022-11-30T15:19:01.513Z,44.82
2022-11-30T15:24:04.972Z,45.60
2022-11-30T15:29:08.416Z,46.56
2022-11-30T15:34:11.831Z,48.29
2022-11-30T15:39:16.345Z,47.76
2022-11-30T15:44:19.774Z,47.46
2022-11-30T15:49:23.273Z,47.07
2022-11-30T15:54:26.653Z,46.49
2022-11-30T15:59:34.028Z,46.36
2022-11-30T16:04:37.435Z,45.53
2022-11-30T16:09:40.785Z,45.64
2022-11-30T16:14:44.226Z,45.71
2022-11-30T16:19:47.792Z,45.19
2022-11-30T16:24:51.517Z,45.68
2022-11-30T16:29:55.339Z,46.42
2022-11-30T16:34:59.108Z,45.54
2022-11-30T16:40:02.580Z,45.44
2022-11-30T16:45:06.073Z,45.15
2022-11-30T16:50:09.615Z,44.50
2022-11-30T16:55:13.272Z,44.71
2022-11-30T17:00:16.898Z,44.80
2022-11-30T17:05:20.335Z,44.67
2022-11-30T17:10:23.865Z,44.35
2022-11-30T17:15:27.322Z,44.26
2022-11-30T17:20:30.777Z,44.13
2022-11-30T17:25:34.244Z,44.23
2022-11-30T17:30:37.689Z,44.12
2022-11-30T17:35:41.170Z,43.92
2022-11-30T17:41:04.627Z,43.69
2022-11-30T17:46:50.206Z,44.18
2022-11-30T17:52:13.992Z,44.00
2022-11-30T17:57:17.486Z,44.05
2022-11-30T18:02:20.970Z,43.82
2022-11-30T18:07:24.513Z,43.47
2022-11-30T18:12:46.336Z,43.83
2022-11-30T18:17:49.724Z,43.59
2022-11-30T18:22:53.131Z,43.34
2022-11-30T18:27:56.503Z,43.53
2022-11-30T18:32:59.883Z,43.16
2022-11-30T18:38:03.369Z,43.09
2022-11-30T18:43:06.883Z,42.56
2022-11-30T18:48:10.306Z,42.53
2022-11-30T18:53:18.078Z,42.63
2022-11-30T18:58:21.955Z,42.24
2022-11-30T19:03:26.422Z,42.20
2022-11-30T19:08:29.796Z,42.54
2022-11-30T19:13:33.471Z,42.33
2022-11-30T19:18:36.851Z,42.56
2022-11-30T19:23:40.235Z,43.48
2022-11-30T19:28:43.624Z,42.72
2022-11-30T19:33:47.071Z,43.88
2022-11-30T19:38:51.550Z,42.88
2022-11-30T19:43:59.584Z,42.50
2022-11-30T19:49:08.509Z,42.46
2022-11-30T19:54:13.904Z,42.89
2022-11-30T19:59:17.300Z,43.19
2022-11-30T20:04:20.845Z,43.11
2022-11-30T20:09:24.357Z,42.73
2022-11-30T20:14:27.771Z,43.16
2022-11-30T20:19:31.761Z,43.04
2022-11-30T20:24:35.361Z,42.74
2022-11-30T20:29:38.729Z,41.95
2022-11-30T20:34:43.883Z,43.45
2022-11-30T20:39:47.427Z,43.93
2022-11-30T20:44:50.996Z,44.49
2022-11-30T20:49:54.620Z,43.94
2022-11-30T20:54:58.008Z,44.56
2022-11-30T21:00:01.419Z,43.95
2022-11-30T21:05:04.805Z,44.60
2022-11-30T21:10:08.280Z,45.02
2022-11-30T21:15:11.651Z,44.49
2022-11-30T21:20:15.192Z,44.20
2022-11-30T21:25:18.625Z,44.73
2022-11-30T21:30:22.335Z,44.69
2022-11-30T21:35:25.895Z,44.14
2022-11-30T21:40:29.299Z,44.44
2022-11-30T21:45:32.663Z,43.17
2022-11-30T21:50:36.067Z,43.81
2022-11-30T21:55:39.491Z,43.62
2022-11-30T22:00:42.954Z,43.23
2022-11-30T22:05:46.362Z,43.70
2022-11-30T22:10:49.777Z,43.83
2022-11-30T22:15:53.371Z,43.86
2022-11-30T22:20:56.743Z,43.69
2022-11-30T22:26:00.103Z,43.70
2022-11-30T22:31:03.601Z,43.59
2022-11-30T22:36:07.158Z,43.49
2022-11-30T22:41:10.588Z,43.43
2022-11-30T22:46:14.050Z,43.54
2022-11-30T22:51:18.387Z,43.62
2022-11-30T22:56:21.880Z,43.74
2022-11-30T23:01:25.548Z,43.88
2022-11-30T23:06:29.126Z,43.80
2022-11-30T23:11:32.506Z,43.58
2022-11-30T23:16:35.940Z,43.54
2022-11-30T23:21:41.715Z,43.49
2022-11-30T23:26:46.127Z,43.50
2022-11-30T23:31:49.693Z,43.58
2022-11-30T23:36:53.194Z,43.47
2022-11-30T23:41:56.715Z,43.49
2022-11-30T23:47:00.222Z,43.60
2022-11-30T23:52:03.771Z,43.62
2022-11-30T23:57:07.139Z,43.54
